Time;durP1;ratioP1;P1;durP2;ratioP2;P2;SDS_P1;SDS_P2;PMS_P1;PMS_P2;Temp;Humidity;BMP_temperature;BMP_pressure;BME280_temperature;BME280_humidity;BME280_pressure;Samples;Min_cycle;Max_cycle;Signal;HPM_P1;HPM_P2
2022/09/29 00:01:07;;;;;;;;;;;16.10;99.90;;;;;;5115033;28;19908;-67
2022/09/29 00:03:33;;;;;;;;;;;16.10;99.90;;;;;;5096750;28;19994;-66
2022/09/29 00:05:59;;;;;;;;;;;16.20;99.90;;;;;;5096589;28;19961;-66
2022/09/29 00:08:26;;;;;;;;;;;16.10;99.90;;;;;;5114855;28;19959;-66
2022/09/29 00:10:51;;;;;;;;;;;16.10;99.90;;;;;;5130647;27;19916;-68
2022/09/29 00:13:17;;;;;;;;;;;16.20;99.90;;;;;;5114859;28;19915;-68
2022/09/29 00:15:43;;;;;;;;;;;16.20;99.90;;;;;;5114753;28;20276;-67
2022/09/29 00:18:10;;;;;;;;;;;16.20;99.90;;;;;;5114679;28;20011;-68
2022/09/29 00:20:36;;;;;;;;;;;16.20;99.90;;;;;;5114723;28;19915;-67
2022/09/29 00:23:02;;;;;;;;;;;16.20;99.90;;;;;;5114616;28;19911;-69
2022/09/29 00:25:28;;;;;;;;;;;16.20;99.90;;;;;;5114643;28;19922;-68
2022/09/29 00:27:54;;;;;;;;;;;16.30;99.90;;;;;;5114487;28;19912;-67
2022/09/29 00:30:20;;;;;;;;;;;16.30;99.90;;;;;;5114525;28;19919;-67
2022/09/29 00:32:45;;;;;;;;;;;16.30;99.90;;;;;;5114010;28;20006;-67
2022/09/29 00:35:11;;;;;;;;;;;16.30;99.90;;;;;;5114431;28;19961;-67
2022/09/29 00:37:37;;;;;;;;;;;16.30;99.90;;;;;;5114419;28;19907;-67
2022/09/29 00:40:03;;;;;;;;;;;16.30;99.90;;;;;;5114061;28;19907;-67
2022/09/29 00:42:30;;;;;;;;;;;16.30;99.90;;;;;;5129998;27;19912;-67
2022/09/29 00:45:14;;;;;;;;;;;16.30;99.90;;;;;;5114388;28;20006;-67
2022/09/29 00:47:42;;;;;;;;;;;16.30;99.90;;;;;;5114161;28;19912;-68
2022/09/29 00:50:39;;;;;;;;;;;16.30;99.90;;;;;;5114171;28;19916;-68
2022/09/29 00:53:10;;;;;;;;;;;16.30;99.90;;;;;;5093337;28;19911;-69
2022/09/29 00:55:45;;;;;;;;;;;16.30;99.90;;;;;;5114525;28;19908;-68
2022/09/29 00:58:17;;;;;;;;;;;16.30;99.90;;;;;;5114119;28;19908;-69
2022/09/29 01:00:43;;;;;;;;;;;16.30;99.90;;;;;;5114353;28;19908;-69
2022/09/29 01:03:19;;;;;;;;;;;16.30;99.90;;;;;;5114073;28;19953;-69
2022/09/29 01:05:54;;;;;;;;;;;16.30;99.90;;;;;;5114080;28;19914;-67
2022/09/29 01:08:23;;;;;;;;;;;16.30;99.90;;;;;;5113892;28;19912;-70
2022/09/29 01:10:49;;;;;;;;;;;16.30;99.90;;;;;;5095672;28;19915;-69
2022/09/29 01:13:15;;;;;;;;;;;16.30;99.90;;;;;;5095639;28;19912;-69
2022/09/29 01:15:41;;;;;;;;;;;16.30;99.90;;;;;;5095706;28;19961;-69
2022/09/29 01:18:07;;;;;;;;;;;16.30;99.90;;;;;;5114228;28;19936;-69
2022/09/29 01:20:36;;;;;;;;;;;16.30;99.90;;;;;;5113592;28;19961;-68
2022/09/29 01:23:04;;;;;;;;;;;16.30;99.90;;;;;;5095483;28;19947;-70
2022/09/29 01:25:33;;;;;;;;;;;16.30;99.90;;;;;;5113864;28;19908;-68
2022/09/29 01:28:17;;;;;;;;;;;16.30;99.90;;;;;;5113705;28;19961;-71
2022/09/29 01:30:48;;;;;;;;;;;16.30;99.90;;;;;;5113764;28;19950;-68
2022/09/29 01:33:20;;;;;;;;;;;16.30;99.90;;;;;;5113420;28;19923;-68
2022/09/29 01:35:48;;;;;;;;;;;16.30;99.90;;;;;;5113752;28;20360;-67
2022/09/29 01:38:20;;;;;;;;;;;16.30;99.90;;;;;;5113415;28;20360;-67
2022/09/29 01:40:53;;;;;;;;;;;16.30;99.90;;;;;;5113693;28;19912;-67
2022/09/29 01:43:22;;;;;;;;;;;16.30;99.90;;;;;;5114616;28;19958;-66
2022/09/29 01:45:58;;;;;;;;;;;16.30;99.90;;;;;;5117718;28;19919;-67
2022/09/29 01:48:25;;;;;;;;;;;16.30;99.90;;;;;;5117644;28;20384;-68
2022/09/29 01:50:59;;;;;;;;;;;16.30;99.90;;;;;;5117609;28;19918;-67
2022/09/29 01:53:27;;;;;;;;;;;16.30;99.90;;;;;;5117527;28;19915;-67
2022/09/29 01:55:56;;;;;;;;;;;16.30;99.90;;;;;;5117531;28;20329;-68
2022/09/29 01:58:24;;;;;;;;;;;16.30;99.90;;;;;;5117421;28;20309;-68
2022/09/29 02:00:52;;;;;;;;;;;16.30;99.90;;;;;;5117694;28;20287;-69
2022/09/29 02:03:20;;;;;;;;;;;16.30;99.90;;;;;;5117318;28;19961;-69
2022/09/29 02:05:49;;;;;;;;;;;16.30;99.90;;;;;;5117348;28;20007;-70
2022/09/29 02:08:32;;;;;;;;;;;16.30;99.90;;;;;;5098850;28;19912;-71
2022/09/29 02:11:01;;;;;;;;;;;16.30;99.90;;;;;;5116848;28;20307;-71
2022/09/29 02:13:30;;;;;;;;;;;16.30;99.90;;;;;;5117193;28;19908;-71
2022/09/29 02:15:56;;;;;;;;;;;16.30;99.90;;;;;;5117145;28;19981;-70
2022/09/29 02:18:22;;;;;;;;;;;16.40;99.90;;;;;;5117053;28;19908;-70
2022/09/29 02:20:49;;;;;;;;;;;16.40;99.90;;;;;;5117317;28;19934;-69
2022/09/29 02:23:14;;;;;;;;;;;16.30;99.90;;;;;;5116971;28;19962;-69
2022/09/29 02:25:40;;;;;;;;;;;16.40;99.90;;;;;;5117265;28;20399;-70
2022/09/29 02:28:06;;;;;;;;;;;16.30;99.90;;;;;;5116822;28;19938;-70
2022/09/29 02:30:33;;;;;;;;;;;16.40;99.90;;;;;;5116783;28;19912;-68
2022/09/29 02:32:59;;;;;;;;;;;16.40;99.90;;;;;;5116284;28;19967;-67
2022/09/29 02:35:28;;;;;;;;;;;16.30;99.90;;;;;;5116688;28;19911;-70
2022/09/29 02:37:59;;;;;;;;;;;16.30;99.90;;;;;;5116751;28;20378;-70
2022/09/29 02:40:36;;;;;;;;;;;16.30;99.90;;;;;;5116690;28;19908;-71
2022/09/29 02:43:11;;;;;;;;;;;16.30;99.90;;;;;;5098409;28;19912;-71
2022/09/29 02:45:36;;;;;;;;;;;16.30;99.90;;;;;;5116332;28;19930;-71
2022/09/29 02:48:04;;;;;;;;;;;16.30;99.90;;;;;;5116462;28;20352;-70
2022/09/29 02:50:36;;;;;;;;;;;16.20;99.90;;;;;;5116779;28;19933;-70
2022/09/29 02:53:23;;;;;;;;;;;16.20;99.90;;;;;;5098101;28;19950;-71
2022/09/29 02:55:58;;;;;;;;;;;16.20;99.90;;;;;;5116327;28;19914;-70
2022/09/29 02:58:47;;;;;;;;;;;16.20;99.90;;;;;;5116425;28;19915;-71
2022/09/29 03:01:15;;;;;;;;;;;16.20;99.90;;;;;;5102316;28;20286;-71
2022/09/29 03:03:41;;;;;;;;;;;16.20;99.90;;;;;;5131996;27;19969;-70
2022/09/29 03:06:08;;;;;;;;;;;16.30;99.90;;;;;;5116177;28;19908;-70
2022/09/29 03:08:33;;;;;;;;;;;16.20;99.90;;;;;;5116051;28;19918;-70
2022/09/29 03:10:59;;;;;;;;;;;16.20;99.90;;;;;;5116027;28;19917;-70
2022/09/29 03:13:24;;;;;;;;;;;16.30;99.90;;;;;;5097694;28;19907;-67
2022/09/29 03:15:50;;;;;;;;;;;16.30;99.90;;;;;;5116340;28;19999;-67
2022/09/29 03:18:16;;;;;;;;;;;16.30;99.90;;;;;;5115893;28;19908;-70
2022/09/29 03:20:41;;;;;;;;;;;16.30;99.90;;;;;;5097238;28;19908;-69
2022/09/29 03:23:07;;;;;;;;;;;16.30;99.90;;;;;;5116133;28;19911;-67
2022/09/29 03:25:33;;;;;;;;;;;16.20;99.90;;;;;;5097209;28;20280;-68
2022/09/29 03:27:58;;;;;;;;;;;16.10;99.90;;;;;;5115622;28;19916;-65
2022/09/29 03:30:24;;;;;;;;;;;16.10;99.90;;;;;;5115649;28;19955;-65
2022/09/29 03:32:50;;;;;;;;;;;16.10;99.90;;;;;;5115722;28;20371;-66
2022/09/29 03:35:15;;;;;;;;;;;16.10;99.90;;;;;;5097245;28;19935;-67
2022/09/29 03:37:41;;;;;;;;;;;16.10;99.90;;;;;;5115517;28;19908;-66
2022/09/29 03:40:07;;;;;;;;;;;16.10;99.90;;;;;;5097153;28;20275;-66
2022/09/29 03:42:33;;;;;;;;;;;16.10;99.90;;;;;;5115078;28;19915;-65
2022/09/29 03:44:58;;;;;;;;;;;16.10;99.90;;;;;;5115417;28;19912;-65
2022/09/29 03:47:24;;;;;;;;;;;16.10;99.90;;;;;;5096895;28;19919;-65
2022/09/29 03:49:50;;;;;;;;;;;16.10;99.90;;;;;;5115316;28;20395;-66
2022/09/29 03:52:16;;;;;;;;;;;16.10;99.90;;;;;;5115252;28;20360;-65
2022/09/29 03:54:41;;;;;;;;;;;16.00;99.90;;;;;;5115216;28;19916;-67
2022/09/29 03:57:07;;;;;;;;;;;16.00;99.90;;;;;;5115224;28;19911;-71
2022/09/29 03:59:32;;;;;;;;;;;16.00;99.90;;;;;;5115077;28;19908;-72
2022/09/29 04:01:58;;;;;;;;;;;16.00;99.90;;;;;;5115326;28;19912;-72
2022/09/29 04:04:24;;;;;;;;;;;16.00;99.90;;;;;;5115262;28;19908;-68
2022/09/29 04:06:50;;;;;;;;;;;16.00;99.90;;;;;;5114425;28;19912;-69
2022/09/29 04:09:15;;;;;;;;;;;16.00;99.90;;;;;;5114910;28;19916;-68
2022/09/29 04:11:41;;;;;;;;;;;16.00;99.90;;;;;;5115164;28;19908;-66
2022/09/29 04:14:07;;;;;;;;;;;16.00;99.90;;;;;;5114776;28;19907;-67
2022/09/29 04:16:32;;;;;;;;;;;16.00;99.90;;;;;;5114834;28;19908;-66
2022/09/29 04:18:58;;;;;;;;;;;16.00;99.90;;;;;;5115031;28;19923;-66
2022/09/29 04:21:23;;;;;;;;;;;16.00;99.90;;;;;;5114633;28;19919;-66
2022/09/29 04:23:49;;;;;;;;;;;15.90;99.90;;;;;;5096365;28;19912;-66
2022/09/29 04:26:15;;;;;;;;;;;15.90;99.90;;;;;;5114445;28;19908;-67
2022/09/29 04:28:41;;;;;;;;;;;15.90;99.90;;;;;;5114529;28;20378;-67
2022/09/29 04:31:07;;;;;;;;;;;15.90;99.90;;;;;;5114550;28;19912;-67
2022/09/29 04:33:33;;;;;;;;;;;15.90;99.90;;;;;;5130060;27;19927;-66
2022/09/29 04:35:59;;;;;;;;;;;15.90;99.90;;;;;;5096192;28;20348;-67
2022/09/29 04:38:24;;;;;;;;;;;15.90;99.90;;;;;;5130280;27;19944;-67
2022/09/29 04:40:50;;;;;;;;;;;15.90;99.90;;;;;;5114350;28;19926;-67
2022/09/29 04:43:16;;;;;;;;;;;15.90;99.90;;;;;;5095990;28;19915;-68
2022/09/29 04:45:42;;;;;;;;;;;15.90;99.90;;;;;;5114675;28;19908;-68
2022/09/29 04:48:07;;;;;;;;;;;15.90;99.90;;;;;;5114503;28;19916;-68
2022/09/29 04:50:33;;;;;;;;;;;15.90;99.90;;;;;;5113919;28;19912;-68
2022/09/29 04:52:59;;;;;;;;;;;15.90;99.90;;;;;;5114158;28;19911;-68
2022/09/29 04:55:24;;;;;;;;;;;15.90;99.90;;;;;;5114172;28;20348;-67
2022/09/29 04:57:50;;;;;;;;;;;16.00;99.90;;;;;;5095731;28;19908;-68
2022/09/29 05:00:16;;;;;;;;;;;16.00;99.90;;;;;;5113089;28;19955;-71
2022/09/29 05:02:42;;;;;;;;;;;16.00;99.90;;;;;;5129773;27;19919;-70
2022/09/29 05:05:09;;;;;;;;;;;16.10;99.90;;;;;;5114024;28;19908;-69
2022/09/29 05:07:35;;;;;;;;;;;16.10;99.90;;;;;;5113984;28;20352;-70
2022/09/29 05:10:01;;;;;;;;;;;16.10;99.90;;;;;;5114228;28;19972;-69
2022/09/29 05:12:26;;;;;;;;;;;16.10;99.90;;;;;;5113907;28;20678;-71
2022/09/29 05:14:52;;;;;;;;;;;16.20;99.90;;;;;;5113760;28;19912;-71
2022/09/29 05:17:17;;;;;;;;;;;16.20;99.90;;;;;;5113927;28;19916;-66
2022/09/29 05:19:43;;;;;;;;;;;16.20;99.90;;;;;;5117411;28;19987;-69
2022/09/29 05:22:09;;;;;;;;;;;16.20;99.90;;;;;;5117816;28;19919;-67
2022/09/29 05:24:34;;;;;;;;;;;16.20;99.90;;;;;;5118124;28;19908;-66
2022/09/29 05:27:00;;;;;;;;;;;16.20;99.90;;;;;;5115188;28;19919;-68
2022/09/29 05:29:25;;;;;;;;;;;16.20;99.90;;;;;;5117271;28;19912;-68
2022/09/29 05:31:51;;;;;;;;;;;16.30;99.90;;;;;;5117028;28;19935;-66
2022/09/29 05:34:17;;;;;;;;;;;16.30;99.90;;;;;;5117497;28;19907;-66
2022/09/29 05:36:43;;;;;;;;;;;16.30;99.90;;;;;;5117566;28;20382;-67
2022/09/29 05:39:09;;;;;;;;;;;16.30;99.90;;;;;;5117486;28;19965;-65
2022/09/29 05:41:34;;;;;;;;;;;16.30;99.90;;;;;;5099279;28;19955;-66
2022/09/29 05:44:00;;;;;;;;;;;16.40;99.90;;;;;;5133257;27;19961;-66
2022/09/29 05:46:26;;;;;;;;;;;16.40;99.90;;;;;;5133184;27;19915;-66
2022/09/29 05:48:52;;;;;;;;;;;16.40;99.90;;;;;;5116922;28;19912;-66
2022/09/29 05:51:19;;;;;;;;;;;16.40;99.90;;;;;;5117164;28;19915;-69
2022/09/29 05:53:45;;;;;;;;;;;16.50;99.90;;;;;;5117226;28;19912;-66
2022/09/29 05:56:13;;;;;;;;;;;16.50;99.90;;;;;;5098998;28;19915;-66
2022/09/29 05:58:38;;;;;;;;;;;16.40;99.90;;;;;;5132426;27;19976;-64
2022/09/29 06:01:08;;;;;;;;;;;16.40;99.90;;;;;;5098156;28;20352;-64
2022/09/29 06:03:34;;;;;;;;;;;16.50;99.90;;;;;;5098544;28;19908;-66
2022/09/29 06:06:07;;;;;;;;;;;16.50;99.90;;;;;;5116762;28;19995;-66
2022/09/29 06:08:33;;;;;;;;;;;16.50;99.90;;;;;;5116768;28;19911;-66
2022/09/29 06:11:03;;;;;;;;;;;16.60;99.90;;;;;;5132803;27;19923;-65
2022/09/29 06:13:29;;;;;;;;;;;16.60;99.90;;;;;;5116896;28;19912;-65
2022/09/29 06:15:57;;;;;;;;;;;16.70;99.90;;;;;;5117215;28;19915;-66
2022/09/29 06:18:22;;;;;;;;;;;16.80;99.90;;;;;;5116408;28;19916;-67
2022/09/29 06:20:48;;;;;;;;;;;16.80;99.90;;;;;;5116595;28;20386;-68
2022/09/29 06:23:13;;;;;;;;;;;16.90;99.90;;;;;;5115099;28;19907;-66
2022/09/29 06:25:39;;;;;;;;;;;16.90;99.90;;;;;;5116757;28;19953;-69
2022/09/29 06:28:05;;;;;;;;;;;17.00;99.90;;;;;;5116480;28;19966;-65
2022/09/29 06:30:30;;;;;;;;;;;16.90;99.90;;;;;;5097660;28;19912;-66
2022/09/29 06:32:56;;;;;;;;;;;17.10;99.90;;;;;;5115819;28;19924;-65
2022/09/29 06:38:06;;;;;;;;;;;17.10;99.90;;;;;;5116114;28;19918;-66
2022/09/29 06:40:32;;;;;;;;;;;17.20;99.90;;;;;;5097899;28;19907;-66
2022/09/29 06:42:57;;;;;;;;;;;17.30;99.90;;;;;;5116258;28;19912;-69
2022/09/29 06:45:23;;;;;;;;;;;17.30;99.90;;;;;;5116255;28;19930;-68
2022/09/29 06:47:49;;;;;;;;;;;17.40;99.90;;;;;;5116105;28;19922;-68
2022/09/29 06:50:14;;;;;;;;;;;17.40;99.90;;;;;;5116135;28;19916;-66
2022/09/29 06:52:40;;;;;;;;;;;17.50;99.90;;;;;;5128783;27;20009;-66
2022/09/29 06:55:06;;;;;;;;;;;17.60;99.90;;;;;;5094357;28;19916;-66
2022/09/29 06:57:32;;;;;;;;;;;17.70;99.90;;;;;;5094389;28;19916;-67
2022/09/29 06:59:57;;;;;;;;;;;17.80;99.90;;;;;;5105401;28;19952;-66
2022/09/29 07:02:23;;;;;;;;;;;17.90;99.90;;;;;;5115726;28;20279;-67
2022/09/29 07:04:48;;;;;;;;;;;18.00;99.90;;;;;;5097030;28;20348;-66
2022/09/29 07:07:14;;;;;;;;;;;18.00;99.90;;;;;;5114434;28;19912;-67
2022/09/29 07:09:41;;;;;;;;;;;18.20;99.90;;;;;;5114484;28;19916;-67
2022/09/29 07:12:07;;;;;;;;;;;18.30;99.90;;;;;;5095894;28;20306;-67
2022/09/29 07:14:32;;;;;;;;;;;18.40;99.90;;;;;;5114853;28;19952;-67
2022/09/29 07:16:59;;;;;;;;;;;18.40;99.90;;;;;;5097469;28;19911;-67
2022/09/29 07:19:25;;;;;;;;;;;18.60;99.90;;;;;;5115513;28;20402;-67
2022/09/29 07:21:51;;;;;;;;;;;18.70;99.90;;;;;;5115759;28;19939;-66
2022/09/29 07:24:16;;;;;;;;;;;18.60;99.90;;;;;;5115758;28;20371;-67
2022/09/29 07:26:42;;;;;;;;;;;18.70;99.90;;;;;;5115393;28;19908;-67
2022/09/29 07:29:08;;;;;;;;;;;18.80;99.90;;;;;;5115457;28;20407;-67
2022/09/29 07:31:34;;;;;;;;;;;18.90;99.90;;;;;;5115658;28;19960;-67
2022/09/29 07:33:59;;;;;;;;;;;19.10;99.90;;;;;;5115087;28;19920;-67
2022/09/29 07:36:25;;;;;;;;;;;19.20;99.90;;;;;;5097221;28;19915;-67
2022/09/29 07:38:51;;;;;;;;;;;19.40;99.90;;;;;;5115575;28;19914;-67
2022/09/29 07:41:18;;;;;;;;;;;19.50;99.90;;;;;;5114583;28;19908;-67
2022/09/29 07:43:44;;;;;;;;;;;19.60;99.90;;;;;;5115337;28;19969;-66
2022/09/29 07:46:09;;;;;;;;;;;19.90;99.90;;;;;;5115039;28;19907;-67
2022/09/29 07:48:36;;;;;;;;;;;20.00;99.90;;;;;;5115295;28;19912;-67
2022/09/29 07:51:02;;;;;;;;;;;20.20;99.90;;;;;;5115248;28;19912;-66
2022/09/29 07:53:29;;;;;;;;;;;20.20;99.90;;;;;;5130952;27;19912;-67
2022/09/29 07:55:55;;;;;;;;;;;20.30;99.90;;;;;;5115141;28;19908;-67
2022/09/29 07:58:21;;;;;;;;;;;20.50;99.90;;;;;;5115104;28;19914;-66
2022/09/29 08:00:52;;;;;;;;;;;20.60;99.90;;;;;;5096790;28;19908;-67
2022/09/29 08:03:17;;;;;;;;;;;20.60;99.90;;;;;;5115133;28;20389;-67
2022/09/29 08:05:43;;;;;;;;;;;20.60;99.90;;;;;;5114935;28;19915;-67
2022/09/29 08:08:08;;;;;;;;;;;20.60;99.90;;;;;;5114731;28;20019;-67
2022/09/29 08:10:34;;;;;;;;;;;20.60;99.90;;;;;;5096381;28;20249;-67
2022/09/29 08:13:00;;;;;;;;;;;20.70;99.90;;;;;;5114789;28;19912;-67
2022/09/29 08:15:25;;;;;;;;;;;20.70;99.90;;;;;;5096341;28;19908;-67
2022/09/29 08:17:52;;;;;;;;;;;20.80;99.90;;;;;;5114592;28;20267;-67
2022/09/29 08:20:18;;;;;;;;;;;21.00;99.90;;;;;;5114749;28;19908;-67
2022/09/29 08:22:44;;;;;;;;;;;21.20;99.90;;;;;;5114361;28;19915;-72
2022/09/29 08:25:09;;;;;;;;;;;21.60;99.90;;;;;;5114161;28;20360;-72
2022/09/29 08:27:35;;;;;;;;;;;21.80;99.90;;;;;;5095929;28;20026;-72
2022/09/29 08:30:01;;;;;;;;;;;21.80;99.90;;;;;;5113759;28;20276;-72
2022/09/29 08:32:27;;;;;;;;;;;21.90;99.90;;;;;;5114253;28;19925;-71
2022/09/29 08:34:53;;;;;;;;;;;21.90;99.90;;;;;;5114470;28;20356;-72
2022/09/29 08:37:18;;;;;;;;;;;21.90;99.90;;;;;;5110541;28;19958;-70
2022/09/29 08:39:44;;;;;;;;;;;22.00;99.90;;;;;;5113214;28;19995;-69
2022/09/29 08:42:21;;;;;;;;;;;21.80;99.90;;;;;;5113089;28;21337;-72
2022/09/29 08:44:50;;;;;;;;;;;21.70;99.90;;;;;;5114577;28;20363;-65
2022/09/29 08:47:19;;;;;;;;;;;21.80;99.90;;;;;;5113644;28;19911;-67
2022/09/29 08:49:45;;;;;;;;;;;21.70;99.90;;;;;;5114467;28;19919;-67
2022/09/29 08:52:17;;;;;;;;;;;21.70;99.90;;;;;;5114010;28;19908;-67
2022/09/29 08:54:44;;;;;;;;;;;22.00;99.90;;;;;;5114150;28;19915;-66
2022/09/29 08:57:23;;;;;;;;;;;22.40;99.90;;;;;;5113110;28;19951;-67
2022/09/29 08:59:51;;;;;;;;;;;22.70;99.90;;;;;;5112465;28;19947;-66
2022/09/29 09:02:35;;;;;;;;;;;23.00;99.90;;;;;;5094309;28;20320;-67
2022/09/29 09:05:11;;;;;;;;;;;23.30;99.90;;;;;;5112809;28;19961;-67
2022/09/29 09:08:12;;;;;;;;;;;23.60;99.90;;;;;;5113566;28;19934;-67
2022/09/29 09:10:45;;;;;;;;;;;23.90;99.90;;;;;;5011205;28;20255;-67
2022/09/29 09:13:17;;;;;;;;;;;23.70;99.90;;;;;;5097978;28;19908;-67
2022/09/29 09:15:42;;;;;;;;;;;23.50;99.90;;;;;;5114082;28;19908;-68
2022/09/29 09:18:21;;;;;;;;;;;23.30;99.90;;;;;;5113452;28;19934;-67
2022/09/29 09:20:49;;;;;;;;;;;23.00;99.90;;;;;;5113840;28;19908;-68
2022/09/29 09:23:23;;;;;;;;;;;23.00;99.90;;;;;;5095400;28;19912;-71
2022/09/29 09:26:17;;;;;;;;;;;23.30;99.90;;;;;;5095458;28;19965;-68
2022/09/29 09:28:42;;;;;;;;;;;23.50;99.90;;;;;;5109255;28;19919;-73
2022/09/29 09:31:10;;;;;;;;;;;23.60;99.90;;;;;;5093191;28;20159;-77
2022/09/29 09:33:49;;;;;;;;;;;23.70;99.90;;;;;;5094576;28;19930;-75
2022/09/29 09:36:22;;;;;;;;;;;23.80;99.90;;;;;;5113581;28;19912;-70
2022/09/29 09:38:48;;;;;;;;;;;23.80;99.90;;;;;;5113655;28;20439;-72
2022/09/29 09:41:17;;;;;;;;;;;23.80;99.90;;;;;;5113552;28;19947;-72
2022/09/29 09:43:45;;;;;;;;;;;23.90;99.90;;;;;;5113439;28;19912;-70
2022/09/29 09:46:21;;;;;;;;;;;23.90;99.90;;;;;;5111901;28;19916;-71
2022/09/29 09:49:05;;;;;;;;;;;24.00;99.90;;;;;;5112797;28;19959;-68
2022/09/29 09:51:31;;;;;;;;;;;24.30;99.90;;;;;;5110883;28;19992;-67
2022/09/29 09:54:00;;;;;;;;;;;24.50;99.90;;;;;;5113116;28;19974;-71
2022/09/29 09:56:29;;;;;;;;;;;24.80;99.90;;;;;;5113072;28;19908;-70
2022/09/29 09:59:00;;;;;;;;;;;25.00;99.90;;;;;;5112465;28;20380;-72
2022/09/29 10:01:26;;;;;;;;;;;25.10;99.90;;;;;;5113139;28;19912;-71
2022/09/29 10:03:52;;;;;;;;;;;25.10;99.90;;;;;;5113398;28;19935;-69
2022/09/29 10:06:17;;;;;;;;;;;25.50;99.90;;;;;;5116978;28;19912;-71
2022/09/29 10:08:43;;;;;;;;;;;25.60;99.90;;;;;;5116948;28;19912;-69
2022/09/29 10:11:18;;;;;;;;;;;25.60;99.90;;;;;;5116201;28;19915;-70
2022/09/29 10:13:44;;;;;;;;;;;25.90;99.90;;;;;;5117160;28;19941;-72
2022/09/29 10:16:16;;;;;;;;;;;26.80;99.90;;;;;;5098493;28;20263;-72
2022/09/29 10:18:51;;;;;;;;;;;27.30;99.90;;;;;;5117364;28;20417;-71
2022/09/29 10:21:32;;;;;;;;;;;28.10;99.90;;;;;;5098642;28;19998;-69
2022/09/29 10:24:00;;;;;;;;;;;28.10;99.90;;;;;;5116779;28;19960;-72
2022/09/29 10:26:28;;;;;;;;;;;28.60;99.90;;;;;;5116812;28;19983;-69
2022/09/29 10:28:59;;;;;;;;;;;28.90;99.90;;;;;;5098412;28;19916;-68
2022/09/29 10:31:26;;;;;;;;;;;28.90;99.90;;;;;;5116636;28;19912;-68
2022/09/29 10:34:01;;;;;;;;;;;30.20;99.90;;;;;;5098092;28;19926;-69
2022/09/29 10:36:47;;;;;;;;;;;31.20;99.90;;;;;;5116517;28;19994;-71
2022/09/29 10:39:31;;;;;;;;;;;31.00;95.50;;;;;;5115708;28;19908;-71
2022/09/29 10:41:57;;;;;;;;;;;31.30;96.20;;;;;;5098330;28;19908;-67
2022/09/29 10:44:22;;;;;;;;;;;31.80;95.50;;;;;;5116835;28;20352;-68
2022/09/29 10:46:55;;;;;;;;;;;31.00;95.70;;;;;;5116420;28;19908;-70
2022/09/29 10:49:22;;;;;;;;;;;31.00;95.50;;;;;;5098235;28;20010;-68
2022/09/29 10:51:52;;;;;;;;;;;30.50;96.40;;;;;;5114181;28;20233;-69
2022/09/29 10:54:18;;;;;;;;;;;31.50;95.20;;;;;;5116195;28;19908;-67
2022/09/29 10:56:48;;;;;;;;;;;32.90;94.10;;;;;;5097883;28;19915;-71
2022/09/29 10:59:14;;;;;;;;;;;31.40;94.70;;;;;;5116181;28;20003;-68
2022/09/29 11:01:46;;;;;;;;;;;31.40;93.50;;;;;;5097285;28;20306;-66
2022/09/29 11:04:23;;;;;;;;;;;31.60;92.20;;;;;;5116150;28;19907;-67
2022/09/29 11:06:49;;;;;;;;;;;32.70;90.40;;;;;;5115797;28;19918;-67
2022/09/29 11:09:15;;;;;;;;;;;34.50;90.30;;;;;;5097483;28;20006;-66
2022/09/29 11:11:46;;;;;;;;;;;34.50;86.20;;;;;;5115716;28;19963;-67
2022/09/29 11:14:26;;;;;;;;;;;35.30;83.00;;;;;;5115539;28;19914;-65
2022/09/29 11:16:54;;;;;;;;;;;33.60;82.30;;;;;;5114600;28;19918;-67
2022/09/29 11:19:19;;;;;;;;;;;33.30;83.70;;;;;;5115814;28;19912;-66
2022/09/29 11:21:45;;;;;;;;;;;;;;;;;;5115139;28;20359;-65
2022/09/29 11:24:17;;;;;;;;;;;35.40;82.70;;;;;;5115669;28;19908;-65
2022/09/29 11:26:50;;;;;;;;;;;33.40;86.50;;;;;;5096779;28;19911;-65
2022/09/29 11:29:35;;;;;;;;;;;34.60;84.40;;;;;;5114687;28;19911;-66
2022/09/29 11:32:03;;;;;;;;;;;34.80;82.70;;;;;;5114692;28;19915;-66
2022/09/29 11:34:29;;;;;;;;;;;36.00;83.20;;;;;;5114827;28;19911;-66
2022/09/29 11:37:10;;;;;;;;;;;35.30;77.60;;;;;;5115598;28;20249;-66
2022/09/29 11:39:46;;;;;;;;;;;36.00;76.00;;;;;;5115344;28;20007;-66
2022/09/29 11:42:21;;;;;;;;;;;34.40;77.80;;;;;;5115378;28;19908;-66
2022/09/29 11:45:00;;;;;;;;;;;33.90;81.40;;;;;;5115528;28;19952;-66
2022/09/29 11:47:35;;;;;;;;;;;34.00;81.80;;;;;;5115151;28;20002;-65
2022/09/29 11:50:01;;;;;;;;;;;;;;;;;;5115508;28;19918;-66
2022/09/29 11:52:41;;;;;;;;;;;36.80;76.30;;;;;;5114935;28;19908;-66
2022/09/29 11:55:16;;;;;;;;;;;37.10;71.10;;;;;;5114933;28;19907;-67
2022/09/29 11:57:49;;;;;;;;;;;36.30;73.70;;;;;;5114769;28;20348;-65
2022/09/29 12:00:19;;;;;;;;;;;34.10;78.40;;;;;;5114943;28;20382;-65
2022/09/29 12:03:03;;;;;;;;;;;32.80;81.60;;;;;;5096686;28;20364;-65
2022/09/29 12:05:32;;;;;;;;;;;33.10;80.30;;;;;;5115031;28;20054;-66
2022/09/29 12:08:01;;;;;;;;;;;33.00;79.70;;;;;;5096526;28;20297;-65
2022/09/29 12:10:33;;;;;;;;;;;31.80;81.50;;;;;;5115331;28;19912;-66
2022/09/29 12:13:18;;;;;;;;;;;31.30;83.40;;;;;;5096309;28;19914;-65
2022/09/29 12:15:44;;;;;;;;;;;34.70;78.90;;;;;;5114755;28;20366;-65
2022/09/29 12:18:18;;;;;;;;;;;36.70;73.30;;;;;;5114314;28;19916;-65
2022/09/29 12:20:47;;;;;;;;;;;37.30;72.70;;;;;;5114416;28;19911;-66
2022/09/29 12:23:14;;;;;;;;;;;38.80;71.30;;;;;;5114500;28;19907;-65
2022/09/29 12:25:48;;;;;;;;;;;40.00;68.40;;;;;;5114627;28;19955;-66
2022/09/29 12:28:17;;;;;;;;;;;40.60;66.00;;;;;;5114162;28;19912;-65
2022/09/29 12:30:42;;;;;;;;;;;;;;;;;;5096288;28;19912;-66
2022/09/29 12:33:16;;;;;;;;;;;40.20;65.70;;;;;;5096478;28;19920;-65
2022/09/29 12:35:42;;;;;;;;;;;39.20;65.60;;;;;;5115563;28;19950;-66
2022/09/29 12:38:11;;;;;;;;;;;38.40;66.60;;;;;;5115602;28;19908;-66
2022/09/29 12:40:50;;;;;;;;;;;37.30;67.10;;;;;;5115629;28;19998;-66
2022/09/29 12:43:18;;;;;;;;;;;38.90;67.20;;;;;;5115432;28;19907;-66
2022/09/29 12:45:47;;;;;;;;;;;40.10;63.50;;;;;;5115528;28;19908;-66
2022/09/29 12:48:31;;;;;;;;;;;40.80;63.30;;;;;;5115299;28;19911;-66
2022/09/29 12:50:58;;;;;;;;;;;;;;;;;;5115647;28;19916;-66
2022/09/29 12:53:43;;;;;;;;;;;37.70;63.40;;;;;;5096879;28;19908;-66
2022/09/29 12:56:13;;;;;;;;;;;37.40;64.40;;;;;;5113441;28;19919;-66
2022/09/29 12:58:43;;;;;;;;;;;37.00;65.10;;;;;;5095462;28;20267;-66
2022/09/29 13:01:21;;;;;;;;;;;37.60;65.90;;;;;;5095858;28;20036;-66
2022/09/29 13:04:10;;;;;;;;;;;36.70;66.70;;;;;;5113951;28;19908;-65
2022/09/29 13:07:02;;;;;;;;;;;35.40;70.30;;;;;;5102650;28;19908;-65
2022/09/29 13:09:46;;;;;;;;;;;35.10;71.80;;;;;;5114191;28;19919;-66
2022/09/29 13:12:30;;;;;;;;;;;35.10;71.50;;;;;;5095506;28;19912;-65
2022/09/29 13:15:14;;;;;;;;;;;35.80;68.70;;;;;;5114116;28;19914;-66
2022/09/29 13:17:55;;;;;;;;;;;33.90;70.60;;;;;;5112441;28;19953;-65
2022/09/29 13:20:42;;;;;;;;;;;32.10;75.90;;;;;;5113784;28;19914;-67
2022/09/29 13:23:27;;;;;;;;;;;31.20;78.60;;;;;;5114022;28;19914;-67
2022/09/29 13:25:53;;;;;;;;;;;30.80;80.40;;;;;;5113587;28;19914;-66
2022/09/29 13:28:29;;;;;;;;;;;30.20;82.70;;;;;;5113603;28;19916;-67
2022/09/29 13:30:57;;;;;;;;;;;29.60;82.90;;;;;;5113723;28;19970;-65
2022/09/29 13:33:24;;;;;;;;;;;29.20;82.90;;;;;;5113608;28;19920;-65
2022/09/29 13:35:50;;;;;;;;;;;29.40;83.70;;;;;;5113711;28;19947;-66
2022/09/29 13:38:18;;;;;;;;;;;29.50;82.90;;;;;;5113703;28;19958;-65
2022/09/29 13:41:08;;;;;;;;;;;29.50;84.80;;;;;;5098785;28;20010;-65
2022/09/29 13:43:37;;;;;;;;;;;31.40;78.70;;;;;;5117782;28;19961;-65
2022/09/29 13:46:22;;;;;;;;;;;31.40;79.30;;;;;;5117722;28;19908;-65
2022/09/29 13:48:52;;;;;;;;;;;30.70;81.30;;;;;;5117202;28;20310;-65
2022/09/29 13:51:21;;;;;;;;;;;30.50;81.50;;;;;;5117676;28;19911;-65
2022/09/29 13:54:07;;;;;;;;;;;29.60;81.80;;;;;;5117521;28;19914;-65
2022/09/29 13:56:33;;;;;;;;;;;29.50;83.20;;;;;;5117688;28;19917;-66
2022/09/29 13:58:59;;;;;;;;;;;29.00;84.10;;;;;;5117480;28;19912;-65
2022/09/29 14:01:43;;;;;;;;;;;28.80;85.10;;;;;;5117621;28;20289;-65
2022/09/29 14:04:27;;;;;;;;;;;28.60;85.70;;;;;;5117053;28;20002;-65
2022/09/29 14:06:54;;;;;;;;;;;28.30;86.80;;;;;;5117149;28;19908;-65
2022/09/29 14:09:22;;;;;;;;;;;28.50;87.60;;;;;;5117077;28;19912;-65
2022/09/29 14:11:49;;;;;;;;;;;28.00;89.80;;;;;;5117126;28;19908;-65
2022/09/29 14:14:15;;;;;;;;;;;27.60;90.10;;;;;;5132913;27;19908;-65
2022/09/29 14:16:41;;;;;;;;;;;27.40;90.80;;;;;;5116882;28;19919;-64
2022/09/29 14:19:15;;;;;;;;;;;27.30;90.40;;;;;;5117114;28;19912;-65
2022/09/29 14:21:46;;;;;;;;;;;27.10;90.80;;;;;;5117121;28;19908;-65
2022/09/29 14:24:30;;;;;;;;;;;26.90;91.00;;;;;;5132865;27;19914;-66
2022/09/29 14:27:16;;;;;;;;;;;26.80;91.30;;;;;;5098252;28;19957;-64
2022/09/29 14:29:50;;;;;;;;;;;26.50;92.10;;;;;;5116991;28;19962;-64
2022/09/29 14:32:22;;;;;;;;;;;26.30;92.80;;;;;;5116731;28;19920;-64
2022/09/29 14:34:49;;;;;;;;;;;26.00;93.90;;;;;;5116546;28;20303;-64